El Dorado International Airport

SKBO · Cundinamarca, Colombia

METAR history SKBO · El Dorado International Airport

Below you see METARs of the last few days. Select a year to browse through older METARs, from the year 2007 onwards.

February 27, 2024

Time Code Weather Temp. Visibility Ceiling Wind METAR/SPECI
00:00
V
11 °C 10 km+ - Var Var 2 kt METAR SKBO 270500Z VRB02KT 9999 FEW020 SCT080 11/10 Q1029 NOSIG

February 26, 2024

Time Code Weather Temp. Visibility Ceiling Wind METAR/SPECI
23:00
V
12 °C 10 km+ - Var Var 2 kt METAR SKBO 270400Z VRB02KT 9999 SCT020 12/11 Q1029 NOSIG
22:00
V
12 °C 10 km+ 7,000 ft 320° 320° 5 kt METAR SKBO 270300Z 32005KT 9999 SCT020 BKN070 12/12 Q1029 NOSIG
21:00
V
13 °C 10 km+ - 320° 320° 4 kt METAR SKBO 270200Z 32004KT 9999 FEW020 SCT080 13/12 Q1028 NOSIG
20:00
V
12 °C 10 km+ - 350° 350° 4 kt METAR SKBO 270100Z 35004KT 9999 SCT020 SCT070 12/11 Q1028 NOSIG
19:00
M
14 °C 10 km+ 2,000 ft 320° 320° 5 kt METAR SKBO 270000Z 32005KT 9999 BKN020 14/12 Q1027 NOSIG
18:00
V
16 °C 10 km+ - 320° 320° 5 kt METAR SKBO 262300Z 32005KT 9999 SCT020 16/11 Q1026 NOSIG
17:00
V
17 °C 10 km+ - 360° 360° 4 kt METAR SKBO 262200Z 36004KT 9999 SCT020 17/12 Q1026 NOSIG
16:00
M
17 °C 8 km 2,000 ft 360° 360° 9 kt METAR SKBO 262100Z 36009KT 8000 VCSH BKN020 17/11 Q1026 NOSIG RMK VCSH/S
15:00
M
19 °C 8 km 2,000 ft 290° 290° 9 kt METAR SKBO 262000Z 29009KT 8000 BKN020 19/10 Q1027 NOSIG
14:00
V
19 °C 8 km - 250° 250° 10 kt METAR SKBO 261900Z 25010KT 8000 3900SE HZ FEW020TCU SCT025 19/11 Q1027 NOSIG RMK TCU/N
13:00
V
19 °C 8 km - 240° 240° 12 kt METAR SKBO 261800Z 24012KT 8000 3900SE HZ SCT020TCU SCT025 19/10 Q1027 NOSIG RMK TCU/NW
12:00
M
20 °C 10 km+ 2,500 ft 200° 200° 4 kt METAR SKBO 261700Z 20004KT 110V280 9999 BKN025 20/07 Q1029 NOSIG
11:00
V
19 °C 10 km+ - 310° 310° 5 kt METAR SKBO 261600Z 31005KT 260V050 9999 SCT025 19/09 Q1029 NOSIG
10:00
V
18 °C 10 km+ - Var Var 2 kt METAR SKBO 261500Z VRB02KT 9999 FEW023 18/10 Q1030 NOSIG
09:00
V
16 °C 8 km - Var Var 2 kt METAR SKBO 261400Z VRB02KT 8000 FEW020 16/10 Q1030 NOSIG
08:13
V
14 °C 8 km - 040° 040° 3 kt METAR SKBO 261313Z 04003KT 010V090 8000 FEW020 14/11 Q1030 NOSIG
08:00
V
10 °C 8 km - Var Var 2 kt METAR SKBO 261300Z VRB02KT 8000 FEW020 10/10 Q1030 BECMG NSW
07:00
L
6 °C 200 m - 330° 330° 3 kt METAR SKBO 261200Z AUTO 33003KT 1200 0200 R14L/1700U R32R/P2000N R14R/0450N FEW004/// 06/06 Q1029
06:00
V
6 °C 10 km+ - Var Var 2 kt METAR SKBO 261100Z VRB02KT 9999 MIFG FEW017 06/06 Q1029 NOSIG
05:30
V
6 °C 10 km+ - Var Var 2 kt METAR SKBO 261030Z VRB02KT 9999 MIFG FEW017 06/06 Q1029 NOSIG
05:00
V
6 °C 10 km+ - Var Var 2 kt METAR SKBO 261000Z VRB02KT 9999 MIFG FEW017 06/06 Q1028 NOSIG
04:00
V
10 °C 10 km+ - Var Var 2 kt METAR SKBO 260900Z VRB02KT 9999 MIFG FEW017 10/09 Q1028 NOSIG
03:00
L
8 °C 800 m 2,500 ft 320° 320° 3 kt METAR SKBO 260800Z AUTO 32003KT 9999 0800 R14L/1900N R32R/P2000N R14R/P2000N R32L/P2000N SCT021/// BKN025/// 08/08 Q1028
02:00
V
11 °C 10 km+ - 230° 230° 2 kt METAR SKBO 260700Z 23002KT 9999 FEW017 11/10 Q1028 NOSIG
01:00
I
10 °C 2.4 km - 320° 320° 2 kt METAR SKBO 260600Z 32002KT 8000 2400 SCT017 10/09 Q1029 NOSIG
00:00
M
12 °C 10 km+ 1,700 ft Var Var 2 kt METAR SKBO 260500Z VRB02KT 9999 BKN017 12/10 Q1029 NOSIG

February 25, 2024

Time Code Weather Temp. Visibility Ceiling Wind METAR/SPECI
23:00
V
13 °C 10 km+ - 300° 300° 5 kt METAR SKBO 260400Z 30005KT 9999 SCT015 13/10 Q1030 NOSIG
22:00
V
13 °C 10 km+ - 280° 280° 6 kt METAR SKBO 260300Z 28006KT 260V320 9999 SCT015 13/11 Q1029 NOSIG
21:00
V
13 °C 10 km+ 7,000 ft 310° 310° 5 kt METAR SKBO 260200Z 31005KT 240V010 9999 FEW015 BKN070 13/11 Q1029 REDZ NOSIG
20:00
V
13 °C 8 km - 310° 310° 5 kt METAR SKBO 260100Z 31005KT 8000 -DZ FEW015 SCT070 13/11 Q1029 NOSIG
19:00
V
13 °C 8 km - 320° 320° 7 kt METAR SKBO 260000Z 32007KT 8000 -DZ SCT015 SCT070 13/11 Q1028 RERA NOSIG
18:00
M
15 °C 8 km 2,300 ft 310° 310° 10 kt METAR SKBO 252300Z 31010KT 8000 RA SCT015TCU BKN023 15/12 Q1027 NOSIG
17:32
V
15 °C 8 km 8,000 ft 310° 310° 12 kt METAR SKBO 252232Z 31012KT 8000 -RA FEW010 SCT023TCU BKN080 15/11 Q1027 NOSIG
17:00
V
18 °C 9 km - 290° 290° 9 kt METAR SKBO 252200Z 29009KT 250V320 9000 VCSH FEW015 SCT023TCU 18/11 Q1026 TEMPO FM2220 RA
16:00
M
17 °C 9 km 2,300 ft 290° 290° 12 kt METAR SKBO 252100Z 29012KT 9000 FEW017 BKN023 17/11 Q1026 NOSIG
15:00
V
18 °C 9 km - 280° 280° 13 kt METAR SKBO 252000Z 28013KT 9000 SCT017 SCT030TCU 18/10 Q1026 NOSIG
14:00
V
19 °C 9 km - 270° 270° 15 kt METAR SKBO 251900Z 27015KT 9000 FEW023 SCT030TCU 19/10 Q1027 NOSIG
13:00
V
19 °C 9 km - 260° 260° 13 kt METAR SKBO 251800Z 26013KT 230V310 9000 FEW017 SCT030TCU 19/10 Q1028 NOSIG
12:00
V
21 °C 10 km+ - 310° 310° 13 kt METAR SKBO 251700Z 31013KT 280V340 9999 FEW025 21/10 Q1028 NOSIG
11:00
V
19 °C 10 km+ - 320° 320° 4 kt METAR SKBO 251600Z 32004KT 9999 SCT025 19/09 Q1030 NOSIG
10:00
V
18 °C 10 km+ - 040° 040° 3 kt METAR SKBO 251500Z 04003KT 9999 FEW025 18/09 Q1030 NOSIG
09:00
V
16 °C 10 km+ - 050° 050° 5 kt METAR SKBO 251400Z 05005KT 020V090 9999 FEW025 16/10 Q1030 NOSIG
08:00
V
14 °C 10 km+ - 060° 060° 5 kt METAR SKBO 251300Z 06005KT 9999 FEW025 14/11 Q1030 NOSIG
07:32
V
13 °C 10 km+ - 050° 050° 3 kt METAR SKBO 251232Z 05003KT 360V090 9999 FEW025 13/10 Q1030 NOSIG
07:00
V
11 °C 10 km+ - 290° 290° 3 kt METAR SKBO 251200Z 29003KT 240V040 9999 FEW020 SCT070 11/09 Q1030 NOSIG
06:00
M
9 °C 10 km+ 2,000 ft 040° 040° 3 kt METAR SKBO 251100Z 04003KT 9999 BKN020 09/08 Q1029 NOSIG
05:30
M
9 °C 10 km+ 2,000 ft Var Var 2 kt METAR SKBO 251030Z VRB02KT 9999 BKN020 09/08 Q1029 NOSIG
05:00
V
8 °C 10 km+ - Var Var 2 kt METAR SKBO 251000Z VRB02KT 9999 SCT017 08/07 Q1029 NOSIG
04:00
V
11 °C 10 km+ - 340° 340° 3 kt METAR SKBO 250900Z 34003KT 9999 SCT017 11/09 Q1028 NOSIG
03:00
M
10 °C 10 km+ 1,700 ft Var Var 2 kt METAR SKBO 250800Z VRB02KT 9999 BKN017 10/10 Q1028 NOSIG
02:00
M
11 °C 10 km+ 2,000 ft Var Var 2 kt METAR SKBO 250700Z VRB02KT 9999 BKN020 11/10 Q1028 NOSIG
01:00
M
11 °C 10 km+ 2,000 ft 330° 330° 4 kt METAR SKBO 250600Z 33004KT 9999 BKN020 11/10 Q1029 NOSIG
00:00
V
13 °C 10 km+ - 310° 310° 5 kt METAR SKBO 250500Z 31005KT 9999 SCT030 13/12 Q1029 NOSIG